Time;durP1;ratioP1;P1;durP2;ratioP2;P2;SDS_P1;SDS_P2;PMS_P1;PMS_P2;Temp;Humidity;BMP_temperature;BMP_pressure;BME280_temperature;BME280_humidity;BME280_pressure;Samples;Min_cycle;Max_cycle;Signal;HPM_P1;HPM_P2
2022/12/16 00:02:18;;;;;;;7.53;6.72;;;20.00;51.10;;;;;;5043271;28;20470;-66
2022/12/16 00:04:44;;;;;;;7.30;6.50;;;20.00;51.10;;;;;;5042879;28;20396;-66
2022/12/16 00:07:09;;;;;;;7.68;6.75;;;19.90;51.00;;;;;;5023102;28;20053;-66
2022/12/16 00:09:35;;;;;;;7.53;6.72;;;19.90;51.10;;;;;;5039462;28;20167;-65
2022/12/16 00:12:01;;;;;;;7.70;6.90;;;19.90;51.10;;;;;;5038688;28;20048;-65
2022/12/16 00:14:28;;;;;;;8.18;7.25;;;19.90;51.10;;;;;;5042985;28;20029;-66
2022/12/16 00:16:53;;;;;;;6.97;6.28;;;19.90;51.20;;;;;;5042768;28;20052;-65
2022/12/16 00:19:19;;;;;;;7.68;6.78;;;19.90;51.20;;;;;;5056090;28;20071;-65
2022/12/16 00:21:44;;;;;;;7.40;6.40;;;19.80;51.20;;;;;;5055880;28;20388;-66
2022/12/16 00:24:10;;;;;;;7.20;6.50;;;19.80;51.20;;;;;;5061049;28;20028;-67
2022/12/16 00:26:36;;;;;;;6.80;6.00;;;19.80;51.20;;;;;;5053814;28;20400;-65
2022/12/16 00:29:04;;;;;;;7.18;6.47;;;19.80;51.20;;;;;;5043041;28;20025;-66
2022/12/16 00:31:30;;;;;;;6.97;6.28;;;19.70;51.20;;;;;;5057944;28;20372;-67
2022/12/16 00:33:58;;;;;;;8.15;6.72;;;19.80;51.30;;;;;;5057628;28;20574;-65
2022/12/16 00:36:24;;;;;;;7.40;6.60;;;19.70;51.30;;;;;;5054868;28;20477;-66
2022/12/16 00:38:51;;;;;;;7.32;6.25;;;19.80;51.40;;;;;;5054154;28;20029;-66
2022/12/16 00:41:17;;;;;;;7.45;6.25;;;19.70;51.30;;;;;;5050097;28;20070;-66
2022/12/16 00:43:42;;;;;;;7.07;6.07;;;19.70;51.30;;;;;;5048993;28;20036;-67
2022/12/16 00:46:08;;;;;;;6.80;6.10;;;19.70;51.40;;;;;;5048431;28;20021;-67
2022/12/16 00:48:34;;;;;;;6.90;6.18;;;19.70;51.40;;;;;;5040822;28;20021;-66
2022/12/16 00:50:59;;;;;;;7.60;6.25;;;19.70;51.40;;;;;;5058532;28;20029;-66
2022/12/16 00:53:25;;;;;;;7.88;6.47;;;19.70;51.50;;;;;;5049573;28;20445;-66
2022/12/16 00:55:59;;;;;;;8.52;6.20;;;19.60;51.40;;;;;;5052386;28;20021;-67
2022/12/16 00:58:25;;;;;;;6.75;6.05;;;19.60;51.40;;;;;;5046505;28;20016;-66
2022/12/16 01:00:51;;;;;;;6.70;6.00;;;19.60;51.50;;;;;;5052219;28;20533;-69
2022/12/16 01:03:16;;;;;;;6.65;5.95;;;19.60;51.40;;;;;;5042112;28;20036;-66
2022/12/16 01:05:42;;;;;;;6.78;5.85;;;19.60;51.50;;;;;;5056174;28;20044;-67
2022/12/16 01:08:08;;;;;;;7.03;6.03;;;19.60;51.50;;;;;;5057625;28;20103;-66
2022/12/16 01:10:33;;;;;;;6.55;5.82;;;19.60;51.50;;;;;;5053508;28;20026;-68
2022/12/16 01:12:59;;;;;;;6.90;5.97;;;19.50;51.50;;;;;;5037095;28;20504;-66
2022/12/16 01:15:25;;;;;;;6.80;6.00;;;19.50;51.50;;;;;;5057777;28;20032;-66
2022/12/16 01:17:50;;;;;;;6.53;5.78;;;19.50;51.60;;;;;;5056353;28;20095;-66
2022/12/16 01:20:16;;;;;;;6.43;5.68;;;19.50;51.60;;;;;;5055537;28;20107;-66
2022/12/16 01:22:41;;;;;;;7.05;6.03;;;19.50;51.60;;;;;;5047113;28;20209;-66
2022/12/16 01:25:10;;;;;;;6.88;5.82;;;19.40;51.50;;;;;;5046830;28;20029;-66
2022/12/16 01:27:35;;;;;;;6.97;5.97;;;19.40;51.60;;;;;;5042658;28;20028;-66
2022/12/16 01:30:01;;;;;;;6.18;5.57;;;19.40;51.60;;;;;;5051043;28;20381;-66
2022/12/16 01:32:27;;;;;;;6.47;5.32;;;19.40;51.60;;;;;;5050937;28;20021;-66
2022/12/16 01:34:53;;;;;;;6.22;5.63;;;19.40;51.60;;;;;;5045900;28;20024;-67
2022/12/16 01:37:19;;;;;;;6.72;5.75;;;19.40;51.70;;;;;;5050330;28;20043;-66
2022/12/16 01:39:45;;;;;;;6.45;5.70;;;19.40;51.60;;;;;;5047328;28;20111;-66
2022/12/16 01:42:13;;;;;;;6.63;5.93;;;19.40;51.70;;;;;;5043869;28;20078;-66
2022/12/16 01:44:42;;;;;;;6.78;5.80;;;19.40;51.70;;;;;;5055863;28;20125;-66
2022/12/16 01:47:12;;;;;;;6.35;5.32;;;19.40;51.70;;;;;;5053134;28;20100;-67
2022/12/16 01:49:59;;;;;;;6.38;5.57;;;19.40;51.70;;;;;;5051229;28;20039;-67
2022/12/16 01:52:32;;;;;;;6.05;5.45;;;19.40;51.80;;;;;;5052744;28;20033;-67
2022/12/16 01:55:04;;;;;;;6.28;5.45;;;19.30;51.70;;;;;;5044218;28;20048;-66
2022/12/16 01:57:39;;;;;;;6.18;5.50;;;19.30;51.70;;;;;;5053816;28;20028;-66
2022/12/16 02:00:06;;;;;;;6.22;5.45;;;19.30;51.80;;;;;;5050403;28;20022;-67
2022/12/16 02:02:33;;;;;;;5.85;5.07;;;19.30;51.70;;;;;;5034838;28;20025;-66
2022/12/16 02:07:43;;;;;;;5.72;5.07;;;19.30;51.80;;;;;;5052195;28;20039;-67
2022/12/16 02:10:10;;;;;;;5.43;4.90;;;19.30;51.80;;;;;;5055866;28;20029;-66
2022/12/16 02:12:55;;;;;;;6.03;5.20;;;19.30;51.80;;;;;;5043333;28;20024;-66
2022/12/16 02:15:39;;;;;;;6.13;4.85;;;19.20;51.80;;;;;;5055693;28;20029;-67
2022/12/16 02:18:31;;;;;;;5.60;4.97;;;19.20;51.80;;;;;;5060143;28;20090;-68
2022/12/16 02:21:08;;;;;;;5.65;4.75;;;19.20;51.80;;;;;;5066075;28;20067;-66
2022/12/16 02:24:17;;;;;;;6.35;5.50;;;19.20;51.80;;;;;;5044515;28;20072;-66
2022/12/16 02:27:00;;;;;;;5.80;4.80;;;19.20;51.80;;;;;;5052339;28;20031;-66
2022/12/16 02:29:57;;;;;;;5.68;5.00;;;19.20;51.90;;;;;;5048944;28;20029;-66
2022/12/16 02:32:42;;;;;;;5.45;4.80;;;19.20;51.90;;;;;;5050972;28;20064;-66
2022/12/16 02:35:32;;;;;;;5.78;5.13;;;19.10;51.90;;;;;;5054301;28;20030;-67
2022/12/16 02:38:01;;;;;;;5.38;4.75;;;19.20;52.00;;;;;;5050004;28;20021;-65
2022/12/16 02:41:01;;;;;;;4.83;4.33;;;19.20;52.00;;;;;;5046294;28;20025;-66
2022/12/16 02:43:29;;;;;;;5.07;4.57;;;19.10;52.00;;;;;;5037876;28;20884;-66
2022/12/16 02:45:55;;;;;;;5.18;4.45;;;19.10;52.00;;;;;;5060762;28;20387;-66
2022/12/16 02:48:20;;;;;;;5.25;4.47;;;19.10;52.00;;;;;;5058445;28;20025;-65
2022/12/16 02:50:49;;;;;;;4.88;4.38;;;19.10;52.10;;;;;;5054825;28;20171;-66
2022/12/16 02:53:18;;;;;;;5.13;4.43;;;19.10;52.00;;;;;;5050066;28;20033;-66
2022/12/16 02:56:08;;;;;;;5.28;4.78;;;19.10;52.10;;;;;;5050900;28;20017;-67
2022/12/16 02:59:06;;;;;;;5.13;4.60;;;19.10;52.10;;;;;;5056646;28;20021;-66
2022/12/16 03:01:56;;;;;;;5.15;4.38;;;19.10;52.10;;;;;;5056764;28;20021;-66
2022/12/16 03:04:34;;;;;;;5.50;4.70;;;19.10;52.10;;;;;;5063769;28;20360;-66
2022/12/16 03:07:04;;;;;;;4.93;4.38;;;19.10;52.10;;;;;;5034364;28;20029;-66
2022/12/16 03:09:33;;;;;;;5.85;5.25;;;19.10;52.20;;;;;;5029690;28;20187;-66
2022/12/16 03:12:02;;;;;;;4.95;4.45;;;19.00;52.10;;;;;;5053588;28;20130;-67
2022/12/16 03:14:30;;;;;;;5.82;4.93;;;19.00;52.20;;;;;;5054725;28;20029;-66
2022/12/16 03:16:56;;;;;;;5.05;4.32;;;19.00;52.20;;;;;;5049471;28;20029;-66
2022/12/16 03:19:25;;;;;;;5.18;4.47;;;19.00;52.20;;;;;;5038465;28;20425;-66
2022/12/16 03:22:05;;;;;;;5.10;4.60;;;19.00;52.30;;;;;;5054279;28;20391;-66
2022/12/16 03:24:31;;;;;;;5.30;4.20;;;19.00;52.80;;;;;;5053873;28;20025;-66
2022/12/16 03:27:05;;;;;;;4.93;4.40;;;19.00;52.30;;;;;;5057853;28;20028;-68
2022/12/16 03:29:52;;;;;;;4.60;4.05;;;19.00;52.30;;;;;;5049718;28;20033;-66
2022/12/16 03:32:28;;;;;;;4.80;4.30;;;18.90;52.30;;;;;;5048605;28;20029;-66
2022/12/16 03:35:12;;;;;;;4.93;4.40;;;18.90;52.30;;;;;;5041613;28;20029;-66
2022/12/16 03:37:40;;;;;;;4.95;4.25;;;19.00;52.40;;;;;;5049719;28;20120;-66
2022/12/16 03:40:08;;;;;;;5.20;4.05;;;18.90;52.40;;;;;;5051798;28;20032;-66
2022/12/16 03:42:36;;;;;;;5.10;4.03;;;18.90;52.30;;;;;;5051204;28;20029;-66
2022/12/16 03:45:05;;;;;;;5.03;4.40;;;18.90;52.90;;;;;;5045141;28;20502;-66
2022/12/16 03:47:31;;;;;;;4.65;4.15;;;18.90;52.40;;;;;;5052699;28;20017;-66
2022/12/16 03:49:57;;;;;;;4.82;4.30;;;18.90;52.40;;;;;;5043727;28;20037;-66
2022/12/16 03:52:22;;;;;;;5.05;4.05;;;18.90;52.40;;;;;;5034500;28;20033;-66
2022/12/16 03:54:48;;;;;;;4.63;4.13;;;18.90;52.50;;;;;;5029776;28;20036;-66
2022/12/16 03:57:14;;;;;;;4.88;4.38;;;18.90;52.50;;;;;;5055474;28;20024;-67
2022/12/16 03:59:39;;;;;;;5.45;4.30;;;18.90;52.50;;;;;;5046828;28;20064;-67
2022/12/16 04:02:05;;;;;;;5.00;4.35;;;18.80;52.60;;;;;;5048579;28;20025;-68
2022/12/16 04:04:30;;;;;;;5.25;4.70;;;18.80;52.50;;;;;;5038249;28;20391;-68
2022/12/16 04:09:40;;;;;;;5.25;4.68;;;18.80;52.60;;;;;;5048079;28;20043;-67
2022/12/16 04:25:55;;;;;;;5.00;4.47;;;18.80;52.80;;;;;;5057909;28;20036;-66
2022/12/16 04:28:20;;;;;;;5.40;4.30;;;18.70;52.70;;;;;;5063637;28;20028;-66
2022/12/16 04:30:46;;;;;;;5.30;4.78;;;18.70;52.70;;;;;;5048591;28;20033;-67
